KNGP/NGP METAR and TAF weather

Enter ICAO airport designator
Station Type Date Time Source
KNGP METAR 2022/06/28 13:56 UTC NOAA

KNGP 281356Z 03007KT 10SM FEW044 FEW200 BKN300 30/22 A3007 RMK AO2 SLP182 T03000222


Station Type Date Time Source
KNGP Decoded METAR 2022/06/28 13:56 UTC NOAA

CORPUS CHRISTI NAVAL AIR STN, TX, United States (KNGP) 27-41N 097-17W
Jun 28, 2022 - 09:56 AM EDT / 2022.06.28 1356 UTC
Wind: from the NNE (030 degrees) at 8 MPH (7 KT):0
Visibility: 10 mile(s):0
Sky conditions: mostly cloudy
Temperature: 86.0 F (30.0 C)
Heat index: 92.1 F (33.4 C):1
Dew Point: 72.0 F (22.2 C)
Relative Humidity: 63%
Pressure (altimeter): 30.07 in. Hg (1018 hPa)
ob: KNGP 281356Z 03007KT 10SM FEW044 FEW200 BKN300 30/22 A3007 RMK AO2 SLP182 T03000222
cycle: 14

Station Type Date Time Source
KNGP TAF 2022/06/28 09:06 UTC NOAA

TAF
AMD KNGP 2809/2907 02012KT 9999 VCSH SCT035 BKN180 OVC300 611806 QNH3001INS
TEMPO 2809/2812 9000 -SHRA
FM281700 08012KT 9999 FEW020 SCT040 BKN180 OVC300 611806 QNH2998INS
FM282100 09013G19KT 9999 VCTS FEW020CB SCT040 SCT120 OVC180 611806 QNH2995INS
FM290300 08010KT 9999 SCT015 SCT100 BKN180 OVC300 611806 QNH2998INS
FM290500 VRB06KT 9999 SCT015 SCT100 BKN220 BKN300 600000 QNH3000INS AUTOMATED SENSOR METWATCH 2809 TIL 2811 T27/2812Z T33/2820Z
AMD 0900 FN20044

Example: see airport list